createdAt,value
2023-03-02T00:01:27.835Z,30.63
2023-03-02T00:03:58.988Z,28.40
2023-03-02T00:06:28.598Z,29.45
2023-03-02T00:08:55.932Z,29.27
2023-03-02T00:11:22.705Z,28.17
2023-03-02T00:13:49.569Z,31.63
2023-03-02T00:16:16.331Z,33.72
2023-03-02T00:18:43.124Z,38.05
2023-03-02T00:21:10.577Z,30.92
2023-03-02T00:23:38.189Z,39.58
2023-03-02T00:26:06.085Z,33.53
2023-03-02T00:28:33.535Z,37.08
2023-03-02T00:31:00.408Z,31.67
2023-03-02T00:33:27.133Z,31.85
2023-03-02T00:35:53.934Z,33.20
2023-03-02T00:38:20.744Z,33.83
2023-03-02T00:40:51.967Z,37.50
2023-03-02T00:43:18.777Z,37.92
2023-03-02T00:45:45.527Z,34.72
2023-03-02T00:48:12.256Z,28.92
2023-03-02T00:50:40.969Z,26.50
2023-03-02T00:53:09.259Z,28.00
2023-03-02T00:55:37.520Z,27.55
2023-03-02T00:58:05.106Z,31.73
2023-03-02T01:00:32.758Z,39.45
2023-03-02T01:02:59.723Z,38.58
2023-03-02T01:05:26.548Z,40.45
2023-03-02T01:07:53.301Z,27.90
2023-03-02T01:10:20.213Z,35.95
2023-03-02T01:12:47.106Z,36.05
2023-03-02T01:15:13.983Z,33.05
2023-03-02T01:17:42.844Z,31.45
2023-03-02T01:20:11.251Z,29.42
2023-03-02T01:22:38.074Z,25.05
2023-03-02T01:25:05.342Z,26.42
2023-03-02T01:27:32.414Z,29.10
2023-03-02T01:29:59.134Z,24.73
2023-03-02T01:32:26.096Z,30.45
2023-03-02T01:34:52.881Z,25.90
2023-03-02T01:37:20.825Z,34.60
2023-03-02T01:39:47.616Z,47.60
2023-03-02T01:42:14.401Z,40.20
2023-03-02T01:44:45.747Z,33.90
2023-03-02T01:47:26.758Z,32.25
2023-03-02T01:50:01.388Z,31.00
2023-03-02T01:52:31.769Z,49.90
2023-03-02T01:55:02.060Z,34.38
2023-03-02T02:00:08.530Z,32.42
2023-03-02T02:02:36.471Z,31.60
2023-03-02T02:05:04.060Z,33.60
2023-03-02T02:07:31.552Z,30.90
2023-03-02T02:09:58.746Z,29.90
2023-03-02T02:12:25.562Z,28.40
2023-03-02T02:14:53.927Z,29.88
2023-03-02T02:17:20.841Z,29.38
2023-03-02T02:20:06.801Z,30.13
2023-03-02T02:22:55.527Z,36.25
2023-03-02T02:25:53.537Z,48.53
2023-03-02T02:28:59.061Z,37.05
2023-03-02T02:31:39.118Z,30.42
2023-03-02T02:34:44.170Z,36.38
2023-03-02T02:37:26.876Z,38.03
2023-03-02T02:39:54.649Z,46.72
2023-03-02T02:42:39.105Z,26.85
2023-03-02T02:45:22.747Z,27.50
2023-03-02T02:47:51.365Z,32.40
2023-03-02T02:50:25.355Z,30.25
2023-03-02T02:53:00.545Z,31.05
2023-03-02T02:55:29.300Z,33.92
2023-03-02T02:57:58.964Z,38.88
2023-03-02T03:00:26.402Z,33.67
2023-03-02T03:03:07.847Z,32.95
2023-03-02T03:08:31.220Z,26.23
2023-03-02T03:10:59.066Z,29.45
2023-03-02T03:13:25.946Z,29.48
2023-03-02T03:15:52.694Z,33.08
2023-03-02T03:18:23.783Z,26.13
2023-03-02T03:20:50.598Z,31.03
2023-03-02T03:23:17.348Z,33.10
2023-03-02T03:25:44.095Z,30.25
2023-03-02T03:28:10.851Z,33.20
2023-03-02T03:30:37.619Z,36.03
2023-03-02T03:33:04.440Z,37.08
2023-03-02T03:35:31.214Z,34.45
2023-03-02T03:37:57.976Z,29.30
2023-03-02T03:40:24.713Z,33.30
2023-03-02T03:42:51.435Z,30.73
2023-03-02T03:45:18.256Z,33.38
2023-03-02T03:47:45.026Z,29.83
2023-03-02T03:50:12.113Z,31.20
2023-03-02T03:52:38.860Z,35.58
2023-03-02T03:55:06.103Z,38.88
2023-03-02T03:57:33.162Z,33.80
2023-03-02T03:59:59.874Z,30.73
2023-03-02T04:02:26.697Z,31.98
2023-03-02T04:04:53.528Z,32.00
2023-03-02T04:07:20.247Z,36.08
2023-03-02T04:09:47.071Z,33.95
2023-03-02T04:12:13.855Z,34.13
2023-03-02T04:14:40.593Z,32.72
2023-03-02T04:17:07.413Z,37.45
2023-03-02T04:19:35.456Z,34.13
2023-03-02T04:22:04.022Z,28.13
2023-03-02T04:24:31.352Z,32.38
2023-03-02T04:26:58.089Z,31.05
2023-03-02T04:29:24.835Z,32.75
2023-03-02T04:31:51.645Z,35.15
2023-03-02T04:34:18.540Z,31.20
2023-03-02T04:36:45.446Z,35.67
2023-03-02T04:39:15.192Z,35.70
2023-03-02T04:41:41.913Z,35.38
2023-03-02T04:44:08.708Z,33.40
2023-03-02T04:46:36.006Z,36.22
2023-03-02T04:49:04.256Z,36.30
2023-03-02T04:51:40.748Z,36.53
2023-03-02T04:54:21.337Z,39.72
2023-03-02T04:56:51.568Z,44.28
2023-03-02T04:59:20.935Z,42.22
2023-03-02T05:01:48.214Z,41.65
2023-03-02T05:04:15.244Z,33.25
2023-03-02T05:06:42.109Z,36.63
2023-03-02T05:09:09.104Z,29.02
2023-03-02T05:11:36.423Z,31.80
2023-03-02T05:14:05.347Z,34.17
2023-03-02T05:16:34.887Z,42.55
2023-03-02T05:19:03.737Z,33.95
2023-03-02T05:21:30.582Z,38.42
2023-03-02T05:23:58.364Z,43.13
2023-03-02T05:26:25.092Z,44.58
2023-03-02T05:28:53.940Z,40.45
2023-03-02T05:31:41.750Z,45.13
2023-03-02T05:34:10.481Z,40.00
2023-03-02T05:36:37.788Z,40.33
2023-03-02T05:39:06.298Z,38.75
2023-03-02T05:41:33.421Z,35.83
2023-03-02T05:44:00.285Z,32.38
2023-03-02T05:46:27.630Z,32.78
2023-03-02T05:48:54.512Z,31.33
2023-03-02T05:51:21.322Z,31.05
2023-03-02T05:53:48.024Z,34.03
2023-03-02T05:56:14.911Z,38.72
2023-03-02T05:58:41.668Z,36.25
2023-03-02T06:01:12.250Z,34.15
2023-03-02T06:03:43.516Z,34.15
2023-03-02T06:06:13.938Z,35.25
2023-03-02T06:08:42.299Z,30.50
2023-03-02T06:11:09.682Z,32.10
2023-03-02T06:13:36.837Z,30.13
2023-03-02T06:16:04.047Z,34.75
2023-03-02T06:18:30.935Z,37.03
2023-03-02T06:20:57.692Z,36.35
2023-03-02T06:23:24.601Z,28.23
2023-03-02T06:25:51.572Z,29.05
2023-03-02T06:28:19.916Z,35.40
2023-03-02T06:30:49.176Z,32.03
2023-03-02T06:33:17.995Z,34.80
2023-03-02T06:35:45.773Z,34.28
2023-03-02T06:38:13.048Z,33.38
2023-03-02T06:40:39.790Z,32.22
2023-03-02T06:43:06.566Z,33.15
2023-03-02T06:45:37.670Z,30.20
2023-03-02T06:48:04.750Z,37.05
2023-03-02T06:50:32.170Z,31.88
2023-03-02T06:52:58.916Z,31.73
2023-03-02T06:55:26.577Z,34.90
2023-03-02T06:57:53.288Z,42.47
2023-03-02T07:00:26.268Z,52.75
2023-03-02T07:02:53.632Z,54.90
2023-03-02T07:05:21.187Z,45.10
2023-03-02T07:07:47.954Z,51.67
2023-03-02T07:10:14.793Z,100.13
2023-03-02T07:12:42.429Z,126.75
2023-03-02T07:15:12.228Z,86.38
2023-03-02T07:17:39.781Z,66.78
2023-03-02T07:20:07.263Z,52.72
2023-03-02T07:22:34.027Z,55.65
2023-03-02T07:25:00.770Z,55.20
2023-03-02T07:27:27.853Z,48.65
2023-03-02T07:29:54.578Z,41.15
2023-03-02T07:32:21.543Z,43.97
2023-03-02T07:34:48.340Z,40.85
2023-03-02T07:37:15.093Z,43.83
2023-03-02T07:39:41.813Z,45.78
2023-03-02T07:42:11.302Z,39.35
2023-03-02T07:44:38.241Z,42.85
2023-03-02T07:47:05.407Z,43.78
2023-03-02T07:49:32.414Z,39.28
2023-03-02T07:51:59.164Z,39.08
2023-03-02T07:54:27.730Z,38.05
2023-03-02T07:56:54.481Z,37.22
2023-03-02T07:59:21.206Z,34.47
2023-03-02T08:01:48.041Z,35.00
2023-03-02T08:04:14.792Z,34.95
2023-03-02T08:06:42.609Z,33.25
2023-03-02T08:09:09.484Z,32.17
2023-03-02T08:11:36.230Z,36.25
2023-03-02T08:14:03.299Z,35.38
2023-03-02T08:16:30.791Z,31.70
2023-03-02T08:18:59.837Z,35.22
2023-03-02T08:21:28.506Z,28.73
2023-03-02T08:23:55.337Z,31.10
2023-03-02T08:26:22.192Z,32.08
2023-03-02T08:28:49.003Z,34.67
2023-03-02T08:31:16.339Z,38.33
2023-03-02T08:33:43.129Z,33.80
2023-03-02T08:36:17.406Z,28.85
2023-03-02T08:38:44.640Z,30.67
2023-03-02T08:41:14.385Z,32.45
2023-03-02T08:43:41.490Z,31.02
2023-03-02T08:46:08.457Z,34.78
2023-03-02T08:48:35.193Z,29.02
2023-03-02T08:51:04.753Z,29.67
2023-03-02T08:53:34.778Z,29.35
2023-03-02T08:56:01.687Z,30.42
2023-03-02T08:58:28.981Z,36.05
2023-03-02T09:00:56.001Z,33.80
2023-03-02T09:03:22.900Z,32.67
2023-03-02T09:05:49.664Z,32.60
2023-03-02T09:08:16.505Z,32.42
2023-03-02T09:10:43.276Z,36.70
2023-03-02T09:13:10.035Z,31.63
2023-03-02T09:15:36.993Z,32.10
2023-03-02T09:18:03.847Z,32.45
2023-03-02T09:20:31.087Z,34.38
2023-03-02T09:22:58.044Z,29.30
2023-03-02T09:25:24.792Z,30.10
2023-03-02T09:27:51.531Z,36.03
2023-03-02T09:30:18.311Z,30.33
2023-03-02T09:32:45.316Z,35.70
2023-03-02T09:35:12.212Z,32.35
2023-03-02T09:37:39.130Z,33.90
2023-03-02T09:40:21.217Z,36.55
2023-03-02T09:42:50.707Z,32.65
2023-03-02T09:45:37.560Z,30.40
2023-03-02T09:48:22.093Z,31.42
2023-03-02T09:51:14.548Z,33.75
2023-03-02T09:54:10.484Z,30.13
2023-03-02T09:56:43.222Z,29.05
2023-03-02T09:59:29.491Z,33.83
2023-03-02T10:02:17.594Z,31.55
2023-03-02T10:04:49.160Z,34.38
2023-03-02T10:07:22.375Z,28.85
2023-03-02T10:09:49.173Z,32.10
2023-03-02T10:12:43.629Z,31.30
2023-03-02T10:15:19.449Z,32.88
2023-03-02T10:18:06.556Z,31.75
2023-03-02T10:21:11.087Z,32.53
2023-03-02T10:23:43.600Z,30.52
2023-03-02T10:26:34.748Z,32.43
2023-03-02T10:29:44.481Z,32.17
2023-03-02T10:32:24.096Z,31.90
2023-03-02T10:34:52.935Z,31.27
2023-03-02T10:37:28.359Z,31.27
2023-03-02T10:39:56.239Z,29.33
2023-03-02T10:42:30.852Z,28.77
2023-03-02T10:45:08.434Z,31.55
2023-03-02T10:47:35.231Z,33.25
2023-03-02T10:50:01.953Z,27.30
2023-03-02T10:52:29.461Z,28.13
2023-03-02T10:55:12.576Z,35.50
2023-03-02T10:57:41.984Z,30.33
2023-03-02T11:00:23.111Z,31.23
2023-03-02T11:03:18.021Z,35.83
2023-03-02T11:05:45.394Z,27.63
2023-03-02T11:08:21.554Z,29.20
2023-03-02T11:11:03.617Z,25.80
2023-03-02T11:13:32.258Z,27.75
2023-03-02T11:16:01.400Z,30.90
2023-03-02T11:18:39.918Z,31.25
2023-03-02T11:21:14.650Z,28.77
2023-03-02T11:24:09.354Z,30.63
2023-03-02T11:26:54.601Z,27.55
2023-03-02T11:29:35.591Z,26.80
2023-03-02T11:32:08.285Z,24.40
2023-03-02T11:34:51.903Z,25.63
2023-03-02T11:37:52.329Z,23.13
2023-03-02T11:40:52.159Z,26.92
2023-03-02T11:43:19.015Z,26.08
2023-03-02T11:46:08.558Z,22.52
2023-03-02T11:48:42.796Z,26.15
2023-03-02T11:51:19.597Z,19.48
2023-03-02T11:53:59.820Z,26.92
2023-03-02T11:56:31.607Z,26.70
2023-03-02T11:59:02.301Z,22.25
2023-03-02T12:01:31.395Z,26.85
2023-03-02T12:04:32.483Z,25.50
2023-03-02T12:07:15.307Z,22.05
2023-03-02T12:09:42.857Z,25.60
2023-03-02T12:12:23.629Z,26.88
2023-03-02T12:14:50.457Z,27.15
2023-03-02T12:17:22.321Z,30.70
2023-03-02T12:19:51.786Z,26.20
2023-03-02T12:22:32.162Z,27.63
2023-03-02T12:25:07.615Z,34.08
2023-03-02T12:27:37.694Z,31.85
2023-03-02T12:30:26.491Z,28.08
2023-03-02T12:33:18.880Z,29.65
2023-03-02T12:35:47.263Z,30.10
2023-03-02T12:38:47.867Z,32.13
2023-03-02T12:41:26.015Z,33.15
2023-03-02T12:44:07.158Z,26.70
2023-03-02T12:46:36.781Z,26.60
2023-03-02T12:49:29.520Z,33.17
2023-03-02T12:51:58.651Z,26.63
2023-03-02T12:54:28.768Z,30.42
2023-03-02T12:57:13.151Z,32.10
2023-03-02T12:59:40.072Z,29.20
2023-03-02T13:02:20.569Z,30.83
2023-03-02T13:04:55.588Z,28.02
2023-03-02T13:07:26.665Z,27.77
2023-03-02T13:09:57.035Z,27.17
2023-03-02T13:12:27.069Z,26.70
2023-03-02T13:14:56.884Z,24.45
2023-03-02T13:17:32.187Z,27.48
2023-03-02T13:20:00.790Z,25.67
2023-03-02T13:22:28.424Z,25.77
2023-03-02T13:25:00.262Z,24.88
2023-03-02T13:27:27.511Z,26.90
2023-03-02T13:29:57.575Z,30.40
2023-03-02T13:32:43.360Z,34.85
2023-03-02T13:35:26.650Z,28.55
2023-03-02T13:38:03.079Z,25.20
2023-03-02T13:40:34.509Z,29.00
2023-03-02T13:43:01.503Z,26.73
2023-03-02T13:45:32.688Z,24.23
2023-03-02T13:48:12.071Z,21.90
2023-03-02T13:50:38.888Z,24.58
2023-03-02T13:53:07.112Z,22.50
2023-03-02T13:55:34.766Z,23.15
2023-03-02T13:58:02.369Z,23.52
2023-03-02T14:00:32.998Z,22.42
2023-03-02T14:03:00.256Z,22.92
2023-03-02T14:05:33.120Z,23.17
2023-03-02T14:08:00.937Z,20.55
2023-03-02T14:10:27.787Z,21.67
2023-03-02T14:13:05.517Z,21.63
2023-03-02T14:15:34.233Z,18.90
2023-03-02T14:18:01.136Z,18.75
2023-03-02T14:20:28.029Z,19.83
2023-03-02T14:22:54.759Z,20.17
2023-03-02T14:25:21.883Z,17.90
2023-03-02T14:27:48.648Z,16.67
2023-03-02T14:30:20.448Z,15.82
2023-03-02T14:32:47.389Z,15.25
2023-03-02T14:35:15.810Z,17.65
2023-03-02T14:37:49.743Z,14.23
2023-03-02T14:40:28.087Z,17.92
2023-03-02T14:42:55.020Z,15.60
2023-03-02T14:45:23.019Z,16.02
2023-03-02T14:47:49.788Z,15.98
2023-03-02T14:50:17.255Z,16.25
2023-03-02T14:52:45.431Z,11.55
2023-03-02T14:55:23.555Z,16.80
2023-03-02T14:57:54.887Z,15.45
2023-03-02T15:00:21.976Z,23.90
2023-03-02T15:02:48.995Z,15.95
2023-03-02T15:05:15.976Z,14.55
2023-03-02T15:07:42.951Z,16.83
2023-03-02T15:10:15.863Z,19.60
2023-03-02T15:12:42.726Z,15.63
2023-03-02T15:15:10.318Z,13.68
2023-03-02T15:17:37.495Z,13.70
2023-03-02T15:20:06.159Z,11.80
2023-03-02T15:22:34.329Z,16.27
2023-03-02T15:25:01.046Z,15.32
2023-03-02T15:27:27.775Z,12.63
2023-03-02T15:29:56.684Z,10.77
2023-03-02T15:32:23.773Z,15.48
2023-03-02T15:34:50.561Z,13.82
2023-03-02T15:37:17.319Z,15.30
2023-03-02T15:39:44.514Z,17.10
2023-03-02T15:42:13.518Z,13.65
2023-03-02T15:44:40.692Z,13.65
2023-03-02T15:47:07.492Z,14.05
2023-03-02T15:49:34.266Z,12.50
2023-03-02T15:52:01.231Z,17.23
2023-03-02T15:54:28.873Z,17.35
2023-03-02T15:56:56.011Z,21.10
2023-03-02T15:59:27.782Z,16.38
2023-03-02T16:01:59.193Z,20.08
2023-03-02T16:04:26.768Z,19.15
2023-03-02T16:06:54.861Z,15.52
2023-03-02T16:09:22.061Z,20.23
2023-03-02T16:11:52.292Z,16.58
2023-03-02T16:14:19.052Z,19.38
2023-03-02T16:16:46.428Z,16.10
2023-03-02T16:19:16.633Z,19.52
2023-03-02T16:21:45.397Z,20.25
2023-03-02T16:24:13.064Z,15.20
2023-03-02T16:26:39.865Z,19.75
2023-03-02T16:29:09.920Z,20.50
2023-03-02T16:31:40.174Z,23.25
2023-03-02T16:34:09.099Z,21.27
2023-03-02T16:36:40.289Z,18.63
2023-03-02T16:39:09.088Z,24.80
2023-03-02T16:41:36.337Z,22.52
2023-03-02T16:44:03.256Z,19.55
2023-03-02T16:46:36.116Z,20.75
2023-03-02T16:49:03.875Z,26.75
2023-03-02T16:51:30.616Z,20.73
2023-03-02T16:53:57.695Z,23.17
2023-03-02T16:56:24.735Z,25.15
2023-03-02T16:58:51.430Z,19.65
2023-03-02T17:01:20.871Z,24.52
2023-03-02T17:03:49.871Z,24.60
2023-03-02T17:06:22.468Z,28.60
2023-03-02T17:08:50.638Z,46.57
2023-03-02T17:11:17.886Z,38.10
2023-03-02T17:13:44.685Z,28.20
2023-03-02T17:16:12.188Z,29.75
2023-03-02T17:18:40.880Z,25.15
2023-03-02T17:21:08.269Z,18.73
2023-03-02T17:23:36.762Z,20.23
2023-03-02T17:26:03.676Z,27.05
2023-03-02T17:28:30.521Z,23.58
2023-03-02T17:30:57.322Z,24.15
2023-03-02T17:33:24.113Z,23.23
2023-03-02T17:35:51.997Z,22.45
2023-03-02T17:38:18.846Z,20.08
2023-03-02T17:40:45.628Z,18.45
2023-03-02T17:43:12.702Z,19.30
2023-03-02T17:45:39.971Z,19.75
2023-03-02T17:48:07.048Z,20.38
2023-03-02T17:50:33.948Z,14.32
2023-03-02T17:53:02.024Z,18.95
2023-03-02T17:55:29.974Z,19.30
2023-03-02T17:57:56.820Z,19.40
2023-03-02T18:00:24.067Z,26.23
2023-03-02T18:02:51.630Z,20.85
2023-03-02T18:05:18.718Z,19.80
2023-03-02T18:07:45.568Z,19.92
2023-03-02T18:10:13.151Z,18.77
2023-03-02T18:12:40.025Z,18.88
2023-03-02T18:15:07.673Z,20.63
2023-03-02T18:17:34.513Z,18.58
2023-03-02T18:20:01.279Z,17.63
2023-03-02T18:22:28.422Z,21.98
2023-03-02T18:24:55.132Z,18.20
2023-03-02T18:27:22.039Z,20.77
2023-03-02T18:29:49.505Z,18.30
2023-03-02T18:32:16.631Z,22.15
2023-03-02T18:34:43.593Z,28.65
2023-03-02T18:37:10.474Z,29.95
2023-03-02T18:39:40.265Z,26.25
2023-03-02T18:42:07.547Z,44.25
2023-03-02T18:44:34.583Z,36.78
2023-03-02T18:47:01.998Z,29.13
2023-03-02T18:49:29.191Z,20.27
2023-03-02T18:51:56.738Z,22.02
2023-03-02T18:54:24.161Z,27.80
2023-03-02T18:56:51.541Z,27.73
2023-03-02T18:59:18.874Z,31.15
2023-03-02T19:01:46.386Z,27.38
2023-03-02T19:04:14.305Z,30.42
2023-03-02T19:06:42.755Z,29.15
2023-03-02T19:09:10.356Z,20.70
2023-03-02T19:11:37.495Z,22.27
2023-03-02T19:14:04.527Z,16.65
2023-03-02T19:16:31.568Z,18.25
2023-03-02T19:18:58.503Z,18.35
2023-03-02T19:21:25.389Z,22.88
2023-03-02T19:23:52.203Z,33.65
2023-03-02T19:26:19.096Z,21.33
2023-03-02T19:28:45.981Z,20.08
2023-03-02T19:31:13.596Z,30.75
2023-03-02T19:33:41.205Z,29.80
2023-03-02T19:36:08.672Z,27.27
2023-03-02T19:38:37.837Z,24.98
2023-03-02T19:41:04.814Z,26.77
2023-03-02T19:43:31.754Z,22.42
2023-03-02T19:45:58.767Z,28.27
2023-03-02T19:48:25.633Z,39.13
2023-03-02T19:50:53.038Z,37.95
2023-03-02T19:53:19.852Z,30.50
2023-03-02T19:55:46.885Z,27.08
2023-03-02T19:58:17.427Z,22.63
2023-03-02T20:00:45.240Z,21.17
2023-03-02T20:03:13.249Z,18.45
2023-03-02T20:05:40.068Z,21.30
2023-03-02T20:08:07.383Z,24.20
2023-03-02T20:10:38.703Z,20.88
2023-03-02T20:13:06.509Z,17.80
2023-03-02T20:15:37.986Z,28.70
2023-03-02T20:18:06.386Z,24.55
2023-03-02T20:20:33.260Z,34.25
2023-03-02T20:23:00.275Z,30.73
2023-03-02T20:25:28.238Z,32.22
2023-03-02T20:27:56.137Z,38.72
2023-03-02T20:30:45.395Z,37.70
2023-03-02T20:33:13.221Z,33.97
2023-03-02T20:35:44.135Z,34.55
2023-03-02T20:38:28.108Z,31.63
2023-03-02T20:40:56.672Z,30.23
2023-03-02T20:43:23.690Z,30.67
2023-03-02T20:45:50.594Z,29.77
2023-03-02T20:48:17.741Z,27.00
2023-03-02T20:50:44.961Z,31.48
2023-03-02T20:53:12.198Z,31.23
2023-03-02T20:55:39.348Z,29.20
2023-03-02T20:58:06.726Z,27.17
2023-03-02T21:00:34.867Z,19.08
2023-03-02T21:03:02.179Z,22.02
2023-03-02T21:05:30.913Z,21.58
2023-03-02T21:07:58.270Z,23.65
2023-03-02T21:10:36.572Z,25.63
2023-03-02T21:13:05.180Z,22.98
2023-03-02T21:15:32.139Z,23.27
2023-03-02T21:17:59.296Z,27.23
2023-03-02T21:20:30.181Z,24.88
2023-03-02T21:22:56.940Z,23.80
2023-03-02T21:25:23.810Z,24.65
2023-03-02T21:27:50.941Z,25.80
2023-03-02T21:30:27.620Z,21.70
2023-03-02T21:32:56.219Z,23.50
2023-03-02T21:35:23.936Z,23.55
2023-03-02T21:37:54.057Z,24.73
2023-03-02T21:40:27.084Z,20.17
2023-03-02T21:42:54.816Z,20.90
2023-03-02T21:45:22.865Z,23.67
2023-03-02T21:47:50.223Z,21.92
2023-03-02T21:50:20.834Z,20.50
2023-03-02T21:52:47.982Z,23.55
2023-03-02T21:55:15.624Z,21.40
2023-03-02T21:57:42.648Z,21.35
2023-03-02T22:00:22.544Z,22.67
2023-03-02T22:02:50.149Z,21.45
2023-03-02T22:05:17.306Z,21.08
2023-03-02T22:07:44.252Z,23.48
2023-03-02T22:10:39.449Z,22.52
2023-03-02T22:13:24.516Z,23.80
2023-03-02T22:16:21.953Z,28.58
2023-03-02T22:18:52.786Z,28.38
2023-03-02T22:21:28.870Z,23.48
2023-03-02T22:24:00.986Z,27.42
2023-03-02T22:26:27.765Z,19.95
2023-03-02T22:29:09.151Z,23.67
2023-03-02T22:31:39.941Z,21.40
2023-03-02T22:34:14.774Z,25.30
2023-03-02T22:36:42.082Z,23.30
2023-03-02T22:39:16.928Z,22.40
2023-03-02T22:41:43.895Z,27.42
2023-03-02T22:44:12.252Z,25.05
2023-03-02T22:46:39.982Z,30.80
2023-03-02T22:49:17.947Z,26.02
2023-03-02T22:51:45.131Z,28.65
2023-03-02T22:54:30.402Z,24.33
2023-03-02T22:56:57.128Z,32.38
2023-03-02T22:59:26.377Z,28.55
2023-03-02T23:02:02.476Z,25.02
2023-03-02T23:04:36.618Z,28.70
2023-03-02T23:07:15.861Z,26.80
2023-03-02T23:09:42.586Z,26.73
2023-03-02T23:12:26.083Z,25.60
2023-03-02T23:17:35.201Z,25.48
2023-03-02T23:20:02.986Z,26.02
2023-03-02T23:22:31.294Z,23.45
2023-03-02T23:24:58.086Z,22.65
2023-03-02T23:27:25.222Z,29.58
2023-03-02T23:29:54.177Z,28.02
2023-03-02T23:32:21.156Z,26.13
2023-03-02T23:34:48.139Z,26.52
2023-03-02T23:37:14.852Z,22.88
2023-03-02T23:39:41.563Z,25.42
2023-03-02T23:42:08.981Z,25.75
2023-03-02T23:44:35.711Z,25.98
2023-03-02T23:47:03.321Z,26.42
2023-03-02T23:49:30.083Z,32.53
2023-03-02T23:51:56.803Z,25.80
2023-03-02T23:54:23.500Z,29.25
2023-03-02T23:56:50.288Z,27.25
2023-03-02T23:59:17.094Z,28.35
